MST,Max TemperatureF,Mean TemperatureF,Min TemperatureF,Max Dew PointF,MeanDew PointF,Min DewpointF,Max Humidity, Mean Humidity, Min Humidity, Max Sea Level PressureIn, Mean Sea Level PressureIn, Min Sea Level PressureIn, Max VisibilityMiles, Mean VisibilityMiles, Min VisibilityMiles, Max Wind SpeedMPH, Mean Wind SpeedMPH, Max Gust SpeedMPH,PrecipitationIn, CloudCover, Events, WindDirDegrees
2014-1-1,50,40,28,28,23,10,87,59,20,30.32,30.11,29.89,10,10,10,23,12,32,0.00,2,,322
2014-1-2,44,32,21,23,21,19,93,68,39,30.27,30.18,30.05,10,10,10,12,6,,0.00,0,,283
2014-1-3,64,48,33,19,14,7,52,27,12,30.04,29.80,29.66,10,10,10,28,16,34,0.00,0,,277
2014-1-4,37,24,10,28,21,9,93,80,41,30.06,29.87,29.67,10,6,1,17,10,18,0.00,6,Snow,110
2014-1-5,15,8,0,10,3,-4,92,82,72,30.33,30.17,30.01,10,8,2,14,5,,0.00,5,Snow,330
2014-1-6,35,16,-4,19,6,-8,85,68,44,30.29,30.19,30.11,10,10,2,31,4,37,0.00,0,Snow,291
2014-1-7,44,38,32,27,21,16,60,50,37,30.13,30.00,29.91,10,10,10,22,15,25,0.00,0,,280
2014-1-8,41,36,28,25,22,19,80,61,45,30.11,30.01,29.91,10,10,10,20,8,25,0.00,2,,58
2014-1-9,51,37,23,23,20,14,93,52,22,30.00,29.82,29.67,10,10,10,25,8,34,0.00,0,,278
2014-1-10,46,39,32,23,12,3,60,37,22,29.89,29.75,29.66,10,10,10,34,19,44,0.00,1,,291
2014-1-11,59,46,33,21,18,14,48,36,23,29.97,29.87,29.74,10,10,10,20,7,30,0.00,0,,275
2014-1-12,51,40,28,21,14,5,56,37,20,30.02,29.80,29.64,10,10,10,34,15,48,0.00,1,,298
2014-1-13,53,42,30,12,10,5,44,28,19,30.04,29.99,29.90,10,10,5,41,19,53,0.00,0,,285
2014-1-14,46,34,21,23,16,10,80,47,27,30.38,30.24,30.01,10,10,10,22,12,30,0.00,1,,316
2014-1-15,60,38,17,18,15,12,86,47,17,30.30,30.15,30.03,10,10,10,29,8,36,0.00,0,,285
2014-1-16,50,39,26,19,16,10,69,42,27,30.29,30.20,30.11,10,10,10,24,10,30,0.00,0,,339
2014-1-17,59,41,23,18,15,12,74,36,17,30.26,30.12,30.02,10,10,10,22,10,31,0.00,0,,283
2014-1-18,62,47,32,14,12,9,44,29,13,30.24,30.17,30.09,10,10,10,21,13,23,0.00,0,,279
2014-1-19,62,50,37,16,12,5,36,27,15,30.16,30.07,30.01,10,10,10,26,20,32,0.00,0,,282
2014-1-20,50,40,30,19,15,7,60,35,21,30.38,30.24,30.01,10,10,10,29,14,37,0.00,0,,259
2014-1-21,66,49,28,12,-2,-13,38,17,4,30.35,30.21,30.10,10,10,10,28,18,38,0.00,0,,289
2014-1-22,42,34,26,27,9,0,93,41,25,30.23,30.12,30.02,10,10,4,18,10,24,0.00,2,Snow,17
2014-1-23,28,20,12,27,14,9,93,82,59,30.52,30.39,30.23,10,8,1,18,8,23,0.00,3,Snow,101
2014-1-24,60,43,26,18,13,5,59,33,11,30.32,30.22,30.13,10,10,10,30,18,34,0.00,0,,277
2014-1-25,62,50,37,21,16,10,42,28,18,30.22,30.07,29.93,10,10,10,23,12,24,0.00,0,,292
2014-1-26,60,44,28,27,19,12,80,45,16,30.13,29.96,29.78,10,10,10,24,16,31,0.00,1,,302
2014-1-27,30,22,15,18,11,5,86,62,43,30.16,30.09,29.98,10,8,1,15,10,17,0.02,8,Snow,88
2014-1-28,28,14,1,14,9,-2,92,72,50,30.23,30.13,30.02,10,10,5,9,3,,0.00,1,Snow,263
2014-1-29,59,42,24,28,17,7,54,36,19,30.02,29.79,29.60,10,10,10,25,10,33,0.00,0,,270
2014-1-30,51,43,32,34,30,27,100,62,38,29.70,29.63,29.53,10,10,2,22,12,31,0.00,5,Snow,25
2014-1-31,32,26,21,32,23,19,100,90,74,29.80,29.73,29.64,10,6,0,12,6,,0.08,8,Snow,97